METAR Data
IDs: Format: Raw Decoded Include TAF

Data at: 2030 UTC 25 Sep 2020

KLNR 251956Z AUTO 19013G24KT 10SM CLR 26/16 A2981 RMK AO2 SLP088 T02610156
KLNR 251856Z AUTO 16012G21KT 10SM CLR 26/16 A2983 RMK AO2 SLP092 T02610161
KLNR 251756Z AUTO 16014KT 10SM CLR 24/16 A2987 RMK AO2 SLP106 T02440156 10250 20139 58018
KLNR 251656Z AUTO 18009KT 10SM CLR 24/15 A2989 RMK AO2 SLP114 T02390150
KLNR 251556Z AUTO 17010KT 10SM CLR 22/16 A2991 RMK AO2 SLP120 T02220156
KLNR 251456Z AUTO 19007KT 10SM CLR 20/15 A2992 RMK AO2 SLP126 T02000150 51003
KLNR 251356Z AUTO 17005KT 10SM CLR 18/14 A2992 RMK AO2 SLP125 T01780144
KLNR 251256Z AUTO 17004KT 10SM CLR 16/14 A2992 RMK AO2 SLP127 T01610139
KLNR 251156Z AUTO 09004KT 10SM CLR 14/12 A2991 RMK AO2 SLP123 70020 T01390122 10161 20139 51006
KLNR 251056Z AUTO 16004KT 10SM CLR 15/13 A2991 RMK AO2 SLP120 T01500128
KLNR 250956Z AUTO 00000KT 10SM CLR 14/13 A2990 RMK AO2 SLP119 T01440128
KLNR 250856Z AUTO 11004KT 10SM FEW060 BKN070 14/13 A2989 RMK AO2 SLP117 T01440133 51004
KLNR 250756Z AUTO 00000KT 10SM FEW065 16/14 A2989 RMK AO2 SLP114 T01610139
KLNR 250656Z AUTO 00000KT 10SM FEW065 15/14 A2989 RMK AO2 SLP116 T01500144
KLNR 250556Z AUTO 00000KT 9SM FEW003 BKN055 16/14 A2988 RMK AO2 SLP112 T01560144 10183 20144 402170111 51001
KLNR 250553Z AUTO 00000KT 8SM FEW003 SCT055 15/14 A2988 RMK AO2
KLNR 250545Z AUTO 11003KT 2SM BR SCT003 BKN060 15/14 A2988 RMK AO2 VIS 3/4V5 T01500144
KLNR 250537Z AUTO 00000KT 1/2SM FG BKN003 BKN060 15/14 A2988 RMK AO2 T01500144
KLNR 250456Z AUTO 00000KT 1/4SM FG BKN002 BKN050 15/15 A2988 RMK AO2 SLP113 T01500150
KLNR 250437Z AUTO 00000KT 1/4SM FG VV001 16/15 A2988 RMK AO2 T01560150
KLNR 250406Z AUTO 00000KT 1/4SM FG BKN003 OVC055 16/15 A2988 RMK AO2 T01610150
KLNR 250356Z AUTO 00000KT 1/4SM FG SCT003 BKN050 BKN060 16/15 A2988 RMK AO2 SLP111 T01560150
KLNR 250349Z AUTO 00000KT 1/4SM FG SCT003 BKN055 BKN070 16/16 A2988 RMK AO2 T01560156
KLNR 250330Z AUTO 00000KT 3/4SM BR FEW003 SCT055 BKN070 17/16 A2988 RMK AO2 T01670161
KLNR 250319Z AUTO 00000KT 1 1/4SM BR FEW003 SCT055 SCT065 17/16 A2988 RMK AO2 T01670161
KLNR 250309Z AUTO 00000KT 2 1/2SM BR SCT049 BKN060 17/16 A2988 RMK AO2 T01670161
KLNR 250256Z AUTO 00000KT 4SM BR BKN050 OVC060 17/17 A2988 RMK AO2 SLP110 T01720167 53008
KLNR 250156Z AUTO 00000KT 6SM BR OVC050 17/17 A2987 RMK AO2 SLP109 T01720167
KLNR 250056Z AUTO 00000KT 8SM OVC050 18/17 A2986 RMK AO2 SLP104 T01780172
KLNR 242356Z AUTO 00000KT 7SM OVC050 18/17 A2985 RMK AO2 SLP103 60020 T01830172 10217 20183 58000
KLNR 242310Z AUTO 00000KT 10SM FEW048 SCT060 BKN075 19/18 A2986 RMK AO2 T01940183
KLNR 242256Z AUTO 00000KT 10SM VCTS SCT045 BKN055 OVC110 20/18 A2985 RMK AO2 RAB03E32 TSB07E53 SLP103 P0007 T02000183
KLNR 242228Z AUTO VRB03G23KT 3SM -TSRA BKN045 OVC060 21/16 A2985 RMK AO2 RAB03 TSB07 P0007 T02060161
KLNR 242219Z AUTO 31008KT 1 3/4SM TSRA BR BKN045 BKN065 OVC100 19/18 A2986 RMK AO2 RAB03 TSB07 P0006 T01890178
KLNR 242213Z AUTO 29007KT 3SM TSRA BR BKN045 BKN060 OVC110 19/18 A2986 RMK AO2 RAB03 TSB07 P0001 T01890183
KLNR 242203Z AUTO 00000KT 6SM VCTS -RA BR BKN046 BKN065 OVC100 19/18 A2985 RMK AO2 RAB03 P0000 T01940183
KLNR 242156Z AUTO 00000KT 6SM BR SCT048 BKN065 OVC110 19/18 A2985 RMK AO2 LTG DSNT W RAE56 TSB15E34 SLP104 P0008 T01940183
KLNR 242140Z AUTO 00000KT 6SM -RA BR FEW041 BKN080 OVC100 19/18 A2985 RMK AO2 LTG DSNT W TSB15E34 P0007 T01890178
KLNR 242129Z AUTO 00000KT 4SM -TSRA BR SCT039 BKN070 OVC110 19/18 A2985 RMK AO2 LTG DSNT SW AND W TSB15 P0007 T01890178
KLNR 242121Z AUTO 00000KT 2 1/2SM -TSRA BR FEW041 BKN080 OVC110 19/18 A2985 RMK AO2 LTG DSNT SW AND W TSB15 P0007 T01890178
KLNR 242111Z AUTO 04003KT 2SM VCTS RA BR FEW035 BKN055 OVC085 19/18 A2985 RMK AO2 LTG DSNT SW AND W P0005 T01890178
KLNR 242056Z AUTO 35005KT 6SM -RA BR FEW035 BKN048 OVC090 19/18 A2985 RMK AO2 LTG DSNT W RAB50 SLP104 P0000 60005 T01940178 55017
KLNR 241956Z AUTO 00000KT 10SM FEW030 BKN070 OVC080 21/18 A2983 RMK AO2 LTG DSNT W RAE55 SLP095 P0002 T02110183
KLNR 241856Z AUTO 17007KT 5SM -RA BR FEW037 SCT075 OVC100 19/17 A2986 RMK AO2 RAB31 SLP106 P0003 T01890172
KLNR 241756Z AUTO 22003KT 10SM FEW042 BKN070 OVC100 20/17 A2990 RMK AO2 SLP120 60000 T02000167 10200 20128 55002
KLNR 241656Z AUTO 00000KT 10SM FEW029 SCT040 19/17 A2990 RMK AO2 LTG DSNT W RAB42E52 SLP120 P0000 T01940167
KLNR 241651Z AUTO 00000KT 10SM -RA SCT029 BKN043 19/17 A2990 RMK AO2 RAB42 P0000
KLNR 241642Z AUTO 19004KT 9SM -RA BKN029 BKN036 OVC055 19/16 A2990 RMK AO2 RAB42 P0000 T01940161
KLNR 241556Z AUTO 18005KT 10SM SCT030 BKN075 19/16 A2991 RMK AO2 SLP122 T01940161
KLNR 241456Z AUTO 00000KT 10SM FEW035 SCT046 BKN060 18/16 A2991 RMK AO2 SLP123 T01780156 53001
KLNR 241356Z AUTO 10004KT 7SM FEW100 16/14 A2991 RMK AO2 SLP122 T01610144
KLNR 241256Z AUTO 00000KT 6SM BR FEW080 FEW100 14/13 A2991 RMK AO2 SLP124 T01390128
KLNR 241156Z AUTO 00000KT 7SM CLR 13/12 A2991 RMK AO2 RAE06 SLP122 P0000 60000 T01280117 10128 20111 58002
KLNR 241056Z AUTO 00000KT 7SM -RA FEW047 SCT110 13/12 A2992 RMK AO2 RAB56 SLP123 P0000 T01280117
KLNR 240956Z AUTO 00000KT 8SM CLR 12/11 A2991 RMK AO2 SLP123 T01170111
KLNR 240856Z AUTO 00000KT 7SM CLR 11/10 A2991 RMK AO2 SLP123 T01110100 56002